BKBT2: Red River, Burkburnett

Data processed at Sat Mar 10 2018 23:45


All information presented herein is the property of the government of the United States of America and may be revised or deleted at any time without prior notice.
Dissemination of this information without the expressed written consent of the Public Affairs Office, Tulsa District U.S. Army Corps of Engineers is strictly prohibited.
These data are gathered electronically and, as presented, have not undergone any form of quality control. These data are not guaranteed to be valid or correct.
Go to home page.
Go to station list.

Upstream stations:

Downstream station:
Previous Day
Next Day
Current Day
    
SHEF ID:       BKBT2     Red Rv nr Burkburnett, TX
STATION TYPE:  

               PRECIP     STAGE  RIV-FLOW  BAT-LOAD
                   in        ft       cfs      volt
              Ccp-Rev   Ccp-Rev   Ccp-Rev   Ccp-Rev
(US/Central)
03/08 00:00      0.00      4.40       313     12.49
03/08 01:00      0.00      4.39       310     12.49
03/08 02:00      0.00      4.39       310     12.49
03/08 03:00      0.00      4.39       310     12.41
03/08 04:00      0.00      4.39       310     12.41
03/08 05:00      0.00      4.39       310     12.41
03/08 06:00      0.00      4.39       310     12.41
03/08 07:00      0.00      4.39       310     12.41
03/08 08:00      0.00      4.39       310     12.41
03/08 09:00      0.00      4.39       310     13.37
03/08 10:00      0.00      4.38       306     14.00
03/08 11:00      0.00      4.33       289     14.00
03/08 12:00      0.00      4.33       289     14.00
03/08 13:00      0.00      4.34       293     13.92
03/08 14:00      0.00      4.37       303     13.84
03/08 15:00      0.00      4.31       282     13.76
03/08 16:00      0.00      4.33       289     13.76
03/08 17:00      0.00      4.30       279     13.60
03/08 18:00      0.00      4.31       282     13.37
03/08 19:00      0.00      4.37       303     12.81
03/08 20:00      0.00      4.37       303     12.57
03/08 21:00      0.00      4.32       286     12.57
03/08 22:00      0.00      4.30       279     12.57
03/08 23:00      0.00      4.31       282     12.57